CPX401 Details

Departure: Seattle-Tacoma International Airport (KSEA)
Arrival: Miami International Airport (KMIA) at N/A
Route: SEA NORMY J90 MWH DLN DDY BFF SGF MEM MGM SZW PLYER JUULI SSCOT5
Notes:


Current Weather Information
KSEA 231253Z 03005KT 9SM FEW010 08/06 A3047 RMK AO2 SLP326 T00830061 $
KMIA 231253Z 05004KT 10SM FEW009 FEW020 SCT250 28/24 A3000 RMK AO2 SLP158 T02780239